RYR3181 LOWW-LIMC
Flight info
| Callsign | RYR3181 |
|---|---|
| Flight time | 1h 7m |
| Altitude | 34000 |
| Route | OSPEN DCT ABRUK DCT SETAL DCT DETSA DCT RENTA M984 EVRIP |
| Aircraft | B38M/M-SDE1FGHILORVWXY/HB1 |
Departure
| Time | 2026-04-25 22:51 |
|---|---|
| Airport | Vienna International Airport (LOWW) |
Arrival
| Time | 2026-04-25 23:58 |
|---|---|
| Airport | Milan Malpensa International Airport (LIMC) |
| Time | Latitude | Longitude | Altitude | Speed | Heading |
|---|---|---|---|---|---|
| 2026-04-25 22:15 | 48.12135 | 16.55349 | 627 ft | 0 kts | 295° |
| 2026-04-25 22:45 | 48.12137 | 16.55342 | 618 ft | 3 kts | 295° |
| 2026-04-25 22:45 | 48.12132 | 16.55279 | 622 ft | 9 kts | 223° |
| 2026-04-25 22:45 | 48.12067 | 16.55223 | 614 ft | 12 kts | 208° |
| 2026-04-25 22:46 | 48.11984 | 16.55179 | 616 ft | 14 kts | 174° |
| 2026-04-25 22:46 | 48.11888 | 16.55160 | 622 ft | 13 kts | 205° |
| 2026-04-25 22:46 | 48.11883 | 16.55157 | 619 ft | 1 kts | 195° |
| 2026-04-25 22:46 | 48.11866 | 16.55214 | 612 ft | 13 kts | 95° |
| 2026-04-25 22:47 | 48.11824 | 16.55387 | 620 ft | 22 kts | 116° |
| 2026-04-25 22:47 | 48.11762 | 16.55577 | 615 ft | 20 kts | 116° |
| 2026-04-25 22:47 | 48.11707 | 16.55745 | 616 ft | 17 kts | 115° |
| 2026-04-25 22:47 | 48.11654 | 16.55909 | 621 ft | 19 kts | 116° |
| 2026-04-25 22:48 | 48.11598 | 16.56081 | 622 ft | 18 kts | 116° |
| 2026-04-25 22:48 | 48.11538 | 16.56263 | 620 ft | 21 kts | 116° |
| 2026-04-25 22:48 | 48.11473 | 16.56464 | 620 ft | 22 kts | 115° |
| 2026-04-25 22:48 | 48.11406 | 16.56669 | 616 ft | 21 kts | 116° |
| 2026-04-25 22:49 | 48.11343 | 16.56859 | 612 ft | 19 kts | 116° |
| 2026-04-25 22:49 | 48.11286 | 16.57038 | 615 ft | 19 kts | 115° |
| 2026-04-25 22:49 | 48.11224 | 16.57228 | 621 ft | 21 kts | 116° |
| 2026-04-25 22:49 | 48.11166 | 16.57407 | 624 ft | 20 kts | 116° |
| 2026-04-25 22:50 | 48.11106 | 16.57592 | 615 ft | 20 kts | 116° |
| 2026-04-25 22:50 | 48.11011 | 16.57624 | 611 ft | 16 kts | 205° |
| 2026-04-25 22:50 | 48.10926 | 16.57505 | 611 ft | 20 kts | 270° |
| 2026-04-25 22:50 | 48.11018 | 16.57215 | 615 ft | 59 kts | 296° |
| 2026-04-25 22:51 | 48.11308 | 16.56323 | 615 ft | 128 kts | 296° |
| 2026-04-25 22:51 | 48.11768 | 16.54936 | 889 ft | 159 kts | 296° |
| 2026-04-25 22:51 | 48.12281 | 16.53439 | 1628 ft | 166 kts | 299° |
| 2026-04-25 22:51 | 48.12818 | 16.51869 | 2470 ft | 173 kts | 290° |
| 2026-04-25 22:52 | 48.12657 | 16.49961 | 2975 ft | 212 kts | 246° |
| 2026-04-25 22:52 | 48.11460 | 16.48583 | 3995 ft | 227 kts | 202° |
| 2026-04-25 22:52 | 48.09864 | 16.48242 | 4604 ft | 238 kts | 195° |
| 2026-04-25 22:52 | 48.08794 | 16.47844 | 4673 ft | 231 kts | 207° |
| 2026-04-25 22:53 | 48.06978 | 16.46158 | 4796 ft | 240 kts | 227° |
| 2026-04-25 22:53 | 48.05642 | 16.44437 | 4854 ft | 258 kts | 226° |
| 2026-04-25 22:53 | 48.04277 | 16.42692 | 4904 ft | 265 kts | 226° |
| 2026-04-25 22:53 | 48.02865 | 16.40871 | 4959 ft | 269 kts | 226° |
| 2026-04-25 22:54 | 48.01473 | 16.39000 | 4984 ft | 267 kts | 231° |
| 2026-04-25 22:54 | 48.00296 | 16.36895 | 4991 ft | 263 kts | 241° |
| 2026-04-25 22:54 | 47.99430 | 16.34529 | 5618 ft | 255 kts | 252° |
| 2026-04-25 22:54 | 47.98826 | 16.32029 | 6653 ft | 257 kts | 255° |
| 2026-04-25 22:55 | 47.98231 | 16.29490 | 7704 ft | 259 kts | 255° |
| 2026-04-25 22:55 | 47.97637 | 16.26924 | 8720 ft | 263 kts | 255° |
| 2026-04-25 22:55 | 47.97044 | 16.24323 | 9713 ft | 267 kts | 255° |
| 2026-04-25 22:55 | 47.96410 | 16.21671 | 10527 ft | 278 kts | 251° |
| 2026-04-25 22:56 | 47.95641 | 16.18926 | 11001 ft | 298 kts | 251° |
| 2026-04-25 22:56 | 47.94829 | 16.16007 | 11625 ft | 310 kts | 251° |
| 2026-04-25 22:56 | 47.94000 | 16.12996 | 12456 ft | 315 kts | 251° |
| 2026-04-25 22:56 | 47.93161 | 16.09943 | 13303 ft | 321 kts | 251° |
| 2026-04-25 22:57 | 47.92311 | 16.06836 | 14127 ft | 325 kts | 251° |
| 2026-04-25 22:57 | 47.91452 | 16.03699 | 14933 ft | 329 kts | 251° |
| 2026-04-25 22:57 | 47.90579 | 16.00515 | 15676 ft | 333 kts | 251° |
| 2026-04-25 22:57 | 47.89699 | 15.97306 | 16509 ft | 337 kts | 251° |
| 2026-04-25 22:58 | 47.88804 | 15.94050 | 17254 ft | 342 kts | 251° |
| 2026-04-25 22:58 | 47.87901 | 15.90764 | 18040 ft | 345 kts | 251° |
| 2026-04-25 22:58 | 47.86982 | 15.87430 | 18687 ft | 350 kts | 250° |
| 2026-04-25 22:58 | 47.86055 | 15.84065 | 19327 ft | 353 kts | 250° |
| 2026-04-25 22:59 | 47.85118 | 15.80676 | 19976 ft | 355 kts | 250° |
| 2026-04-25 22:59 | 47.84170 | 15.77248 | 20544 ft | 360 kts | 251° |
| 2026-04-25 22:59 | 47.83216 | 15.73805 | 21246 ft | 362 kts | 250° |
| 2026-04-25 22:59 | 47.82252 | 15.70323 | 21865 ft | 365 kts | 250° |
| 2026-04-25 23:00 | 47.81274 | 15.66804 | 22435 ft | 370 kts | 250° |
| 2026-04-25 23:00 | 47.80279 | 15.63234 | 23017 ft | 374 kts | 251° |
| 2026-04-25 23:00 | 47.79285 | 15.59668 | 23659 ft | 376 kts | 251° |
| 2026-04-25 23:00 | 47.78277 | 15.56059 | 24137 ft | 379 kts | 251° |
| 2026-04-25 23:01 | 47.77263 | 15.52429 | 24606 ft | 382 kts | 251° |
| 2026-04-25 23:01 | 47.76236 | 15.48758 | 25034 ft | 387 kts | 251° |
| 2026-04-25 23:01 | 47.75198 | 15.45061 | 25510 ft | 390 kts | 251° |
| 2026-04-25 23:01 | 47.74148 | 15.41326 | 25963 ft | 393 kts | 251° |
| 2026-04-25 23:02 | 47.73090 | 15.37561 | 26379 ft | 397 kts | 251° |
| 2026-04-25 23:02 | 47.72019 | 15.33757 | 26819 ft | 401 kts | 251° |
| 2026-04-25 23:02 | 47.70939 | 15.29927 | 27289 ft | 403 kts | 251° |
| 2026-04-25 23:02 | 47.69848 | 15.26070 | 27668 ft | 409 kts | 251° |
| 2026-04-25 23:03 | 47.68741 | 15.22150 | 28036 ft | 413 kts | 251° |
| 2026-04-25 23:03 | 47.67620 | 15.18202 | 28492 ft | 416 kts | 251° |
| 2026-04-25 23:03 | 47.66497 | 15.14251 | 28917 ft | 418 kts | 251° |
| 2026-04-25 23:03 | 47.65363 | 15.10263 | 29257 ft | 420 kts | 251° |
| 2026-04-25 23:04 | 47.64223 | 15.06256 | 29597 ft | 424 kts | 251° |
| 2026-04-25 23:04 | 47.63460 | 15.03584 | 29821 ft | 427 kts | 251° |
| 2026-04-25 23:04 | 47.61902 | 14.98136 | 30300 ft | 431 kts | 251° |
| 2026-04-25 23:04 | 47.60728 | 14.94040 | 30651 ft | 432 kts | 251° |
| 2026-04-25 23:05 | 47.59550 | 14.89934 | 30930 ft | 435 kts | 251° |
| 2026-04-25 23:05 | 47.58364 | 14.85807 | 31085 ft | 436 kts | 251° |
| 2026-04-25 23:05 | 47.55987 | 14.77556 | 31060 ft | 435 kts | 251° |
| 2026-04-25 23:06 | 47.53617 | 14.69355 | 31282 ft | 437 kts | 251° |
| 2026-04-25 23:06 | 47.52404 | 14.65169 | 31703 ft | 438 kts | 251° |
| 2026-04-25 23:06 | 47.51214 | 14.61069 | 32044 ft | 440 kts | 251° |
| 2026-04-25 23:07 | 47.49991 | 14.56863 | 32482 ft | 439 kts | 251° |
| 2026-04-25 23:07 | 47.48783 | 14.52717 | 32918 ft | 438 kts | 251° |
| 2026-04-25 23:07 | 47.47597 | 14.48652 | 33408 ft | 436 kts | 251° |
| 2026-04-25 23:07 | 47.46398 | 14.44549 | 33896 ft | 435 kts | 251° |
| 2026-04-25 23:08 | 47.45194 | 14.40438 | 34107 ft | 436 kts | 251° |
| 2026-04-25 23:08 | 47.43994 | 14.36347 | 34092 ft | 432 kts | 251° |
| 2026-04-25 23:08 | 47.41604 | 14.28215 | 34095 ft | 431 kts | 251° |
| 2026-04-25 23:09 | 47.39208 | 14.20088 | 34084 ft | 432 kts | 251° |
| 2026-04-25 23:09 | 47.37196 | 14.13290 | 34094 ft | 432 kts | 251° |
| 2026-04-25 23:10 | 47.34787 | 14.05173 | 34096 ft | 432 kts | 250° |
| 2026-04-25 23:10 | 47.32385 | 13.97102 | 34104 ft | 432 kts | 250° |
| 2026-04-25 23:11 | 47.29963 | 13.88994 | 34096 ft | 432 kts | 250° |
| 2026-04-25 23:11 | 47.27536 | 13.80894 | 34093 ft | 432 kts | 250° |
| 2026-04-25 23:12 | 47.25101 | 13.72796 | 34105 ft | 433 kts | 250° |
| 2026-04-25 23:12 | 47.22663 | 13.64712 | 34112 ft | 432 kts | 250° |
| 2026-04-25 23:13 | 47.20219 | 13.56636 | 34092 ft | 432 kts | 250° |
| 2026-04-25 23:13 | 47.17773 | 13.48580 | 34091 ft | 432 kts | 250° |
| 2026-04-25 23:14 | 47.15320 | 13.40525 | 34098 ft | 432 kts | 250° |
| 2026-04-25 23:14 | 47.12866 | 13.32492 | 34105 ft | 432 kts | 250° |
| 2026-04-25 23:15 | 47.10399 | 13.24448 | 34100 ft | 431 kts | 250° |
| 2026-04-25 23:15 | 47.07931 | 13.16422 | 34091 ft | 431 kts | 249° |
| 2026-04-25 23:16 | 47.05460 | 13.08409 | 34121 ft | 432 kts | 250° |
| 2026-04-25 23:16 | 47.02999 | 13.00456 | 34112 ft | 431 kts | 249° |
| 2026-04-25 23:17 | 47.00516 | 12.92462 | 34125 ft | 431 kts | 249° |
| 2026-04-25 23:17 | 46.98030 | 12.84476 | 34110 ft | 431 kts | 249° |
| 2026-04-25 23:18 | 46.95541 | 12.76511 | 34063 ft | 430 kts | 249° |
| 2026-04-25 23:18 | 46.93042 | 12.68540 | 34116 ft | 431 kts | 249° |
| 2026-04-25 23:19 | 46.90539 | 12.60577 | 34119 ft | 430 kts | 249° |
| 2026-04-25 23:19 | 46.88032 | 12.52628 | 34155 ft | 431 kts | 249° |
| 2026-04-25 23:20 | 46.85519 | 12.44686 | 34155 ft | 430 kts | 249° |
| 2026-04-25 23:20 | 46.83002 | 12.36755 | 34163 ft | 430 kts | 249° |
| 2026-04-25 23:21 | 46.80466 | 12.28818 | 34158 ft | 432 kts | 247° |
| 2026-04-25 23:21 | 46.79121 | 12.24902 | 33973 ft | 432 kts | 247° |
| 2026-04-25 23:21 | 46.77776 | 12.20986 | 33707 ft | 432 kts | 247° |
| 2026-04-25 23:22 | 46.76430 | 12.17060 | 33361 ft | 433 kts | 247° |
| 2026-04-25 23:22 | 46.75098 | 12.13173 | 33132 ft | 434 kts | 247° |
| 2026-04-25 23:23 | 46.71059 | 12.01421 | 33105 ft | 429 kts | 247° |
| 2026-04-25 23:23 | 46.68397 | 11.93702 | 33096 ft | 429 kts | 247° |
| 2026-04-25 23:24 | 46.65712 | 11.85941 | 33074 ft | 429 kts | 247° |
| 2026-04-25 23:24 | 46.63019 | 11.78179 | 33103 ft | 430 kts | 247° |
| 2026-04-25 23:25 | 46.60325 | 11.70436 | 33087 ft | 429 kts | 247° |
| 2026-04-25 23:25 | 46.57622 | 11.62695 | 33079 ft | 429 kts | 246° |
| 2026-04-25 23:26 | 46.54941 | 11.55033 | 33075 ft | 414 kts | 246° |
| 2026-04-25 23:26 | 46.52360 | 11.47679 | 33075 ft | 406 kts | 246° |
| 2026-04-25 23:27 | 46.49809 | 11.40432 | 32558 ft | 401 kts | 246° |
| 2026-04-25 23:27 | 46.48536 | 11.36822 | 32015 ft | 400 kts | 246° |
| 2026-04-25 23:27 | 46.47274 | 11.33250 | 31574 ft | 397 kts | 247° |
| 2026-04-25 23:27 | 46.46016 | 11.29694 | 31162 ft | 393 kts | 247° |
| 2026-04-25 23:28 | 46.44769 | 11.26172 | 31105 ft | 395 kts | 247° |
| 2026-04-25 23:28 | 46.42247 | 11.19065 | 31064 ft | 396 kts | 246° |
| 2026-04-25 23:29 | 46.39717 | 11.11953 | 31182 ft | 397 kts | 246° |
| 2026-04-25 23:29 | 46.37204 | 11.04909 | 31187 ft | 397 kts | 246° |
| 2026-04-25 23:30 | 46.34689 | 10.97872 | 31183 ft | 397 kts | 246° |
| 2026-04-25 23:30 | 46.32147 | 10.90778 | 31167 ft | 396 kts | 246° |
| 2026-04-25 23:31 | 46.29645 | 10.83685 | 31138 ft | 396 kts | 248° |
| 2026-04-25 23:31 | 46.27174 | 10.76574 | 31124 ft | 396 kts | 248° |
| 2026-04-25 23:32 | 46.24700 | 10.69477 | 31100 ft | 396 kts | 247° |
| 2026-04-25 23:32 | 46.22218 | 10.62381 | 31087 ft | 395 kts | 247° |
| 2026-04-25 23:33 | 46.19733 | 10.55294 | 31092 ft | 396 kts | 247° |
| 2026-04-25 23:33 | 46.17243 | 10.48212 | 31096 ft | 396 kts | 247° |
| 2026-04-25 23:34 | 46.14751 | 10.41139 | 31063 ft | 395 kts | 247° |
| 2026-04-25 23:34 | 46.12260 | 10.34079 | 31093 ft | 395 kts | 247° |
| 2026-04-25 23:35 | 46.09770 | 10.27044 | 31068 ft | 393 kts | 247° |
| 2026-04-25 23:35 | 46.08535 | 10.23561 | 30635 ft | 389 kts | 247° |
| 2026-04-25 23:35 | 46.07299 | 10.20077 | 29896 ft | 394 kts | 247° |
| 2026-04-25 23:35 | 46.06043 | 10.16544 | 29107 ft | 398 kts | 247° |
| 2026-04-25 23:36 | 46.04797 | 10.13046 | 29050 ft | 386 kts | 247° |
| 2026-04-25 23:36 | 46.02471 | 10.06118 | 28626 ft | 385 kts | 248° |
| 2026-04-25 23:36 | 46.01308 | 10.02654 | 27815 ft | 393 kts | 248° |
| 2026-04-25 23:37 | 46.00098 | 9.99062 | 26974 ft | 394 kts | 248° |
| 2026-04-25 23:37 | 45.98902 | 9.95518 | 26202 ft | 394 kts | 249° |
| 2026-04-25 23:37 | 45.97705 | 9.91972 | 25429 ft | 395 kts | 248° |
| 2026-04-25 23:37 | 45.96518 | 9.88467 | 24722 ft | 395 kts | 248° |
| 2026-04-25 23:38 | 45.95295 | 9.84853 | 23970 ft | 397 kts | 248° |
| 2026-04-25 23:38 | 45.94085 | 9.81287 | 23205 ft | 398 kts | 248° |
| 2026-04-25 23:38 | 45.92873 | 9.77717 | 22375 ft | 398 kts | 248° |
| 2026-04-25 23:38 | 45.91659 | 9.74152 | 21581 ft | 397 kts | 248° |
| 2026-04-25 23:39 | 45.90462 | 9.70643 | 20810 ft | 396 kts | 248° |
| 2026-04-25 23:39 | 45.89255 | 9.67102 | 20079 ft | 394 kts | 247° |
| 2026-04-25 23:39 | 45.88052 | 9.63581 | 19352 ft | 393 kts | 247° |
| 2026-04-25 23:39 | 45.86832 | 9.60013 | 18758 ft | 389 kts | 247° |
| 2026-04-25 23:40 | 45.85654 | 9.56569 | 18294 ft | 381 kts | 246° |
| 2026-04-25 23:40 | 45.84495 | 9.53193 | 17810 ft | 373 kts | 246° |
| 2026-04-25 23:40 | 45.83357 | 9.49875 | 17447 ft | 369 kts | 246° |
| 2026-04-25 23:40 | 45.82234 | 9.46606 | 17059 ft | 364 kts | 246° |
| 2026-04-25 23:41 | 45.81135 | 9.43410 | 16700 ft | 360 kts | 247° |
| 2026-04-25 23:41 | 45.80033 | 9.40212 | 16347 ft | 356 kts | 246° |
| 2026-04-25 23:41 | 45.78944 | 9.37052 | 16010 ft | 352 kts | 246° |
| 2026-04-25 23:41 | 45.77862 | 9.33917 | 15638 ft | 349 kts | 246° |
| 2026-04-25 23:42 | 45.76792 | 9.30824 | 15281 ft | 346 kts | 246° |
| 2026-04-25 23:42 | 45.75726 | 9.27745 | 14879 ft | 345 kts | 246° |
| 2026-04-25 23:42 | 45.74665 | 9.24681 | 14546 ft | 341 kts | 246° |
| 2026-04-25 23:42 | 45.73613 | 9.21644 | 14207 ft | 338 kts | 245° |
| 2026-04-25 23:43 | 45.72570 | 9.18638 | 13865 ft | 336 kts | 245° |
| 2026-04-25 23:43 | 45.71533 | 9.15653 | 13483 ft | 334 kts | 245° |
| 2026-04-25 23:43 | 45.70507 | 9.12702 | 13125 ft | 330 kts | 245° |
| 2026-04-25 23:43 | 45.69500 | 9.09807 | 13032 ft | 319 kts | 245° |
| 2026-04-25 23:44 | 45.68525 | 9.07010 | 13067 ft | 312 kts | 245° |
| 2026-04-25 23:44 | 45.67558 | 9.04239 | 13050 ft | 311 kts | 245° |
| 2026-04-25 23:44 | 45.66592 | 9.01472 | 12963 ft | 309 kts | 245° |
| 2026-04-25 23:44 | 45.65621 | 8.98694 | 12400 ft | 316 kts | 245° |
| 2026-04-25 23:45 | 45.64634 | 8.95887 | 11934 ft | 318 kts | 245° |
| 2026-04-25 23:45 | 45.63642 | 8.93064 | 11546 ft | 317 kts | 245° |
| 2026-04-25 23:45 | 45.62492 | 8.90365 | 10988 ft | 324 kts | 229° |
| 2026-04-25 23:45 | 45.60600 | 8.88580 | 10308 ft | 335 kts | 198° |
| 2026-04-25 23:46 | 45.58276 | 8.88365 | 9741 ft | 338 kts | 169° |
| 2026-04-25 23:46 | 45.56001 | 8.89150 | 9338 ft | 335 kts | 167° |
| 2026-04-25 23:46 | 45.53726 | 8.89824 | 8937 ft | 333 kts | 168° |
| 2026-04-25 23:46 | 45.51461 | 8.90469 | 8508 ft | 332 kts | 168° |
| 2026-04-25 23:47 | 45.49196 | 8.91100 | 8069 ft | 328 kts | 168° |
| 2026-04-25 23:47 | 45.47021 | 8.91698 | 7934 ft | 307 kts | 168° |
| 2026-04-25 23:47 | 45.44982 | 8.92255 | 7876 ft | 295 kts | 168° |
| 2026-04-25 23:47 | 45.42980 | 8.92800 | 7696 ft | 293 kts | 168° |
| 2026-04-25 23:48 | 45.40984 | 8.93345 | 7446 ft | 291 kts | 168° |
| 2026-04-25 23:48 | 45.38992 | 8.93884 | 7273 ft | 290 kts | 168° |
| 2026-04-25 23:48 | 45.37005 | 8.94421 | 6987 ft | 292 kts | 168° |
| 2026-04-25 23:48 | 45.35015 | 8.94960 | 6649 ft | 292 kts | 168° |
| 2026-04-25 23:49 | 45.33008 | 8.95437 | 6316 ft | 292 kts | 174° |
| 2026-04-25 23:49 | 45.30985 | 8.95451 | 5967 ft | 291 kts | 191° |
| 2026-04-25 23:49 | 45.29175 | 8.94251 | 5549 ft | 290 kts | 223° |
| 2026-04-25 23:49 | 45.28089 | 8.91895 | 5139 ft | 285 kts | 255° |
| 2026-04-25 23:50 | 45.27740 | 8.89184 | 4735 ft | 275 kts | 263° |
| 2026-04-25 23:50 | 45.27481 | 8.86503 | 4306 ft | 275 kts | 263° |
| 2026-04-25 23:50 | 45.27222 | 8.83794 | 3899 ft | 278 kts | 263° |
| 2026-04-25 23:50 | 45.26966 | 8.81061 | 3476 ft | 281 kts | 263° |
| 2026-04-25 23:51 | 45.26729 | 8.78302 | 3103 ft | 281 kts | 268° |
| 2026-04-25 23:51 | 45.27144 | 8.75708 | 3011 ft | 267 kts | 301° |
| 2026-04-25 23:51 | 45.28467 | 8.74008 | 3050 ft | 256 kts | 339° |
| 2026-04-25 23:51 | 45.30146 | 8.73827 | 3622 ft | 236 kts | 10° |
| 2026-04-25 23:52 | 45.31748 | 8.74341 | 3851 ft | 234 kts | 13° |
| 2026-04-25 23:52 | 45.33320 | 8.74886 | 3882 ft | 233 kts | 13° |
| 2026-04-25 23:52 | 45.34909 | 8.75437 | 3573 ft | 236 kts | 13° |
| 2026-04-25 23:52 | 45.36515 | 8.75999 | 3223 ft | 239 kts | 13° |
| 2026-04-25 23:53 | 45.38113 | 8.76562 | 3076 ft | 233 kts | 13° |
| 2026-04-25 23:53 | 45.39695 | 8.77123 | 2989 ft | 235 kts | 13° |
| 2026-04-25 23:53 | 45.41271 | 8.77683 | 3013 ft | 227 kts | 13° |
| 2026-04-25 23:53 | 45.42742 | 8.78213 | 2981 ft | 208 kts | 13° |
| 2026-04-25 23:54 | 45.44111 | 8.78495 | 2992 ft | 194 kts | 358° |
| 2026-04-25 23:54 | 45.45441 | 8.78255 | 2987 ft | 193 kts | 347° |
| 2026-04-25 23:54 | 45.46304 | 8.77981 | 2988 ft | 193 kts | 347° |
| 2026-04-25 23:54 | 45.47622 | 8.77589 | 2969 ft | 193 kts | 348° |
| 2026-04-25 23:55 | 45.49366 | 8.77112 | 2975 ft | 193 kts | 348° |
| 2026-04-25 23:55 | 45.50649 | 8.76760 | 2859 ft | 179 kts | 348° |
| 2026-04-25 23:55 | 45.51787 | 8.76447 | 2693 ft | 154 kts | 348° |
| 2026-04-25 23:55 | 45.52795 | 8.76169 | 2493 ft | 144 kts | 348° |
| 2026-04-25 23:56 | 45.53458 | 8.75987 | 2362 ft | 143 kts | 348° |
| 2026-04-25 23:56 | 45.54433 | 8.75718 | 2175 ft | 143 kts | 348° |
| 2026-04-25 23:56 | 45.55413 | 8.75448 | 1988 ft | 143 kts | 348° |
| 2026-04-25 23:56 | 45.56388 | 8.75179 | 1812 ft | 143 kts | 347° |
| 2026-04-25 23:57 | 45.57364 | 8.74911 | 1592 ft | 143 kts | 348° |
| 2026-04-25 23:57 | 45.58336 | 8.74652 | 1393 ft | 142 kts | 348° |
| 2026-04-25 23:57 | 45.59297 | 8.74389 | 1178 ft | 140 kts | 349° |
| 2026-04-25 23:57 | 45.60247 | 8.74122 | 1011 ft | 139 kts | 349° |
| 2026-04-25 23:58 | 45.61191 | 8.73857 | 834 ft | 137 kts | 349° |
| 2026-04-25 23:58 | 45.62103 | 8.73605 | 742 ft | 126 kts | 349° |
| 2026-04-25 23:58 | 45.62801 | 8.73413 | 740 ft | 69 kts | 349° |
| 2026-04-25 23:58 | 45.63107 | 8.73281 | 737 ft | 26 kts | 330° |
| 2026-04-25 23:59 | 45.63229 | 8.73129 | 739 ft | 22 kts | 308° |
| 2026-04-25 23:59 | 45.63299 | 8.72988 | 738 ft | 12 kts | 304° |
| 2026-04-25 23:59 | 45.63336 | 8.72911 | 739 ft | 9 kts | 304° |
| 2026-04-25 23:59 | 45.63352 | 8.72877 | 739 ft | 0 kts | 304° |
| 2026-04-26 00:00 | 45.63354 | 8.72872 | 739 ft | 2 kts | 304° |
| 2026-04-26 00:00 | 45.63361 | 8.72859 | 739 ft | 1 kts | 304° |
| 2026-04-26 00:00 | 45.63369 | 8.72841 | 737 ft | 4 kts | 304° |
| 2026-04-26 00:00 | 45.63390 | 8.72797 | 739 ft | 7 kts | 304° |
| 2026-04-26 00:01 | 45.63411 | 8.72729 | 739 ft | 8 kts | 278° |
| 2026-04-26 00:01 | 45.63404 | 8.72634 | 739 ft | 10 kts | 259° |
| 2026-04-26 00:01 | 45.63390 | 8.72521 | 739 ft | 13 kts | 261° |
| 2026-04-26 00:01 | 45.63374 | 8.72382 | 739 ft | 15 kts | 257° |
| 2026-04-26 00:02 | 45.63352 | 8.72232 | 741 ft | 16 kts | 260° |
| 2026-04-26 00:02 | 45.63329 | 8.72064 | 739 ft | 19 kts | 260° |
| 2026-04-26 00:02 | 45.63281 | 8.71971 | 739 ft | 11 kts | 181° |
| 2026-04-26 00:02 | 45.63195 | 8.71991 | 739 ft | 15 kts | 169° |
| 2026-04-26 00:03 | 45.63081 | 8.72022 | 739 ft | 18 kts | 169° |
| 2026-04-26 00:03 | 45.62954 | 8.72057 | 739 ft | 19 kts | 169° |
| 2026-04-26 00:03 | 45.62826 | 8.72093 | 739 ft | 19 kts | 169° |
| 2026-04-26 00:03 | 45.62702 | 8.72127 | 738 ft | 18 kts | 169° |
| 2026-04-26 00:04 | 45.62571 | 8.72163 | 739 ft | 19 kts | 169° |
| 2026-04-26 00:04 | 45.62449 | 8.72196 | 739 ft | 16 kts | 169° |
| 2026-04-26 00:04 | 45.62367 | 8.72132 | 737 ft | 17 kts | 258° |
| 2026-04-26 00:04 | 45.62344 | 8.71959 | 739 ft | 16 kts | 259° |
| 2026-04-26 00:05 | 45.62325 | 8.71816 | 739 ft | 15 kts | 259° |
| 2026-04-26 00:05 | 45.62336 | 8.71731 | 738 ft | 7 kts | 344° |
| 2026-04-26 00:05 | 45.62380 | 8.71719 | 739 ft | 0 kts | 349° |